createdAt,value
2022-08-08T00:02:30.400Z,4.60
2022-08-08T00:06:00.880Z,4.73
2022-08-08T00:09:53.963Z,4.40
2022-08-08T00:13:20.745Z,4.63
2022-08-08T00:16:42.139Z,4.30
2022-08-08T00:20:02.860Z,3.97
2022-08-08T00:23:10.892Z,3.60
2022-08-08T00:26:29.785Z,4.20
2022-08-08T00:29:55.209Z,4.43
2022-08-08T00:33:11.634Z,4.23
2022-08-08T00:36:26.937Z,4.27
2022-08-08T00:41:09.468Z,4.43
2022-08-08T00:44:04.544Z,5.00
2022-08-08T00:47:36.685Z,5.37
2022-08-08T00:51:20.498Z,5.30
2022-08-08T00:54:59.330Z,4.83
2022-08-08T00:58:18.608Z,5.10
2022-08-08T01:03:18.195Z,5.13
2022-08-08T01:05:58.948Z,7.70
2022-08-08T01:09:36.092Z,4.27
2022-08-08T01:13:05.014Z,4.47
2022-08-08T01:16:34.512Z,4.30
2022-08-08T01:20:18.423Z,5.13
2022-08-08T01:24:05.727Z,4.03
2022-08-08T01:27:50.802Z,4.53
2022-08-08T01:31:02.225Z,4.93
2022-08-08T01:34:46.805Z,5.20
2022-08-08T01:38:30.600Z,4.73
2022-08-08T01:41:52.645Z,4.60
2022-08-08T01:45:22.771Z,4.20
2022-08-08T01:48:48.224Z,4.50
2022-08-08T01:52:29.494Z,5.33
2022-08-08T01:56:29.335Z,5.47
2022-08-08T02:00:01.657Z,4.37
2022-08-08T02:03:55.720Z,5.50
2022-08-08T02:07:01.052Z,4.80
2022-08-08T02:10:44.510Z,5.40
2022-08-08T02:13:57.981Z,4.87
2022-08-08T02:17:26.091Z,4.43
2022-08-08T02:21:18.277Z,4.40
2022-08-08T02:24:29.414Z,4.23
2022-08-08T02:28:01.035Z,5.13
2022-08-08T02:31:58.877Z,4.53
2022-08-08T02:35:07.861Z,5.27
2022-08-08T02:38:42.301Z,4.03
2022-08-08T02:42:13.512Z,4.40
2022-08-08T02:45:33.555Z,4.83
2022-08-08T02:49:27.590Z,4.63
2022-08-08T02:52:58.562Z,4.40
2022-08-08T02:56:17.829Z,5.53
2022-08-08T02:59:58.190Z,5.23
2022-08-08T03:05:05.456Z,7.07
2022-08-08T03:07:24.556Z,4.10
2022-08-08T03:10:59.148Z,5.20
2022-08-08T03:16:04.026Z,5.27
2022-08-08T03:18:04.791Z,4.80
2022-08-08T03:21:14.668Z,4.83
2022-08-08T03:24:20.346Z,4.57
2022-08-08T03:27:35.779Z,4.87
2022-08-08T03:30:49.158Z,4.83
2022-08-08T03:34:14.099Z,5.07
2022-08-08T03:38:00.031Z,4.90
2022-08-08T03:40:52.114Z,4.40
2022-08-08T03:43:59.568Z,4.10
2022-08-08T03:47:13.995Z,5.53
2022-08-08T03:50:24.821Z,4.67
2022-08-08T03:53:42.675Z,4.53
2022-08-08T03:56:50.473Z,5.30
2022-08-08T04:00:01.353Z,5.17
2022-08-08T04:03:14.358Z,4.50
2022-08-08T04:06:19.785Z,4.17
2022-08-08T04:09:22.491Z,5.30
2022-08-08T04:12:26.326Z,5.10
2022-08-08T04:15:30.374Z,4.60
2022-08-08T04:18:44.769Z,4.97
2022-08-08T04:21:55.548Z,4.97
2022-08-08T04:24:59.006Z,4.73
2022-08-08T04:28:35.086Z,7.03
2022-08-08T04:31:57.239Z,5.03
2022-08-08T04:34:55.458Z,5.20
2022-08-08T04:38:00.720Z,5.17
2022-08-08T04:41:17.862Z,4.87
2022-08-08T04:44:26.851Z,5.63
2022-08-08T04:47:30.107Z,6.37
2022-08-08T04:50:38.369Z,7.10
2022-08-08T04:54:37.013Z,5.53
2022-08-08T04:57:08.900Z,5.70
2022-08-08T05:00:12.907Z,7.10
2022-08-08T05:04:10.408Z,6.83
2022-08-08T05:06:46.983Z,5.07
2022-08-08T05:09:52.972Z,6.73
2022-08-08T05:13:01.530Z,5.07
2022-08-08T05:16:53.303Z,5.17
2022-08-08T05:20:08.985Z,4.63
2022-08-08T05:22:55.657Z,5.40
2022-08-08T05:26:04.432Z,4.53
2022-08-08T05:29:09.144Z,4.93
2022-08-08T05:32:13.296Z,4.33
2022-08-08T05:35:23.436Z,4.40
2022-08-08T05:38:32.148Z,4.20
2022-08-08T05:41:55.098Z,6.20
2022-08-08T05:45:10.235Z,5.27
2022-08-08T05:48:28.839Z,3.03
2022-08-08T05:51:47.943Z,4.10
2022-08-08T05:54:57.269Z,3.70
2022-08-08T05:58:17.382Z,5.90
2022-08-08T06:01:57.437Z,6.13
2022-08-08T06:04:54.536Z,4.27
2022-08-08T06:08:02.362Z,5.50
2022-08-08T06:11:13.243Z,5.23
2022-08-08T06:14:21.380Z,2.50
2022-08-08T06:17:50.473Z,2.77
2022-08-08T06:20:57.132Z,2.60
2022-08-08T06:24:02.485Z,3.37
2022-08-08T06:27:11.511Z,2.40
2022-08-08T06:30:28.568Z,2.77
2022-08-08T06:34:27.056Z,5.70
2022-08-08T06:37:25.267Z,2.57
2022-08-08T06:40:36.944Z,2.43
2022-08-08T06:43:57.108Z,3.43
2022-08-08T06:47:04.371Z,5.10
2022-08-08T06:50:12.772Z,1.90
2022-08-08T06:53:21.204Z,2.20
2022-08-08T06:56:31.015Z,3.83
2022-08-08T07:00:10.399Z,2.00
2022-08-08T07:03:02.228Z,2.77
2022-08-08T07:06:10.650Z,1.40
2022-08-08T07:09:20.707Z,1.97
2022-08-08T07:12:50.248Z,2.67
2022-08-08T07:16:16.665Z,1.40
2022-08-08T07:19:21.433Z,2.23
2022-08-08T07:22:37.588Z,2.07
2022-08-08T07:25:54.130Z,1.67
2022-08-08T07:28:59.331Z,2.57
2022-08-08T07:32:10.746Z,1.83
2022-08-08T07:35:20.505Z,2.57
2022-08-08T07:38:28.536Z,2.63
2022-08-08T07:42:03.715Z,3.30
2022-08-08T07:45:01.844Z,1.67
2022-08-08T07:48:05.812Z,2.40
2022-08-08T07:51:23.700Z,1.70
2022-08-08T07:54:53.498Z,2.30
2022-08-08T07:58:11.143Z,1.83
2022-08-08T08:01:21.687Z,2.53
2022-08-08T08:04:39.847Z,2.50
2022-08-08T08:07:54.554Z,3.13
2022-08-08T08:11:04.545Z,2.43
2022-08-08T08:14:11.874Z,4.83
2022-08-08T08:17:23.076Z,2.37
2022-08-08T08:20:30.728Z,2.30
2022-08-08T08:23:40.723Z,2.73
2022-08-08T08:26:52.469Z,1.87
2022-08-08T08:29:55.390Z,2.47
2022-08-08T08:33:02.962Z,2.23
2022-08-08T08:36:17.750Z,5.77
2022-08-08T08:39:24.053Z,3.00
2022-08-08T08:42:31.963Z,6.47
2022-08-08T08:45:40.341Z,5.33
2022-08-08T08:48:49.298Z,7.00
2022-08-08T08:52:00.535Z,5.53
2022-08-08T08:55:04.761Z,4.90
2022-08-08T08:58:09.776Z,8.43
2022-08-08T09:01:16.361Z,5.20
2022-08-08T09:04:31.092Z,5.50
2022-08-08T09:07:52.196Z,3.60
2022-08-08T09:11:11.582Z,3.77
2022-08-08T09:14:15.207Z,5.03
2022-08-08T09:17:31.512Z,3.53
2022-08-08T09:21:57.183Z,5.50
2022-08-08T09:24:13.599Z,3.10
2022-08-08T09:27:20.804Z,6.63
2022-08-08T09:30:29.417Z,3.90
2022-08-08T09:34:15.342Z,3.67
2022-08-08T09:37:28.705Z,3.47
2022-08-08T09:40:45.488Z,4.90
2022-08-08T09:44:06.930Z,2.80
2022-08-08T09:48:02.302Z,2.73
2022-08-08T09:50:50.352Z,5.77
2022-08-08T09:54:07.532Z,3.87
2022-08-08T09:57:25.061Z,2.97
2022-08-08T10:00:49.953Z,3.97
2022-08-08T10:03:58.089Z,3.57
2022-08-08T10:07:07.652Z,3.90
2022-08-08T10:10:10.405Z,3.90
2022-08-08T10:13:29.814Z,3.63
2022-08-08T10:16:42.727Z,3.60
2022-08-08T10:19:46.060Z,4.47
2022-08-08T10:23:02.379Z,3.63
2022-08-08T10:26:05.287Z,5.93
2022-08-08T10:30:03.953Z,4.37
2022-08-08T10:33:09.987Z,4.67
2022-08-08T10:36:22.831Z,6.00
2022-08-08T10:39:43.034Z,4.10
2022-08-08T10:42:49.660Z,3.57
2022-08-08T10:45:56.467Z,4.17
2022-08-08T10:49:00.746Z,3.50
2022-08-08T10:52:03.298Z,3.43
2022-08-08T10:55:11.222Z,3.60
2022-08-08T10:58:15.753Z,5.33
2022-08-08T11:01:20.678Z,3.73
2022-08-08T11:04:29.463Z,5.07
2022-08-08T11:08:31.459Z,4.93
2022-08-08T11:11:31.640Z,4.50
2022-08-08T11:14:30.000Z,3.20
2022-08-08T11:17:58.672Z,3.90
2022-08-08T11:20:55.643Z,6.07
2022-08-08T11:24:03.108Z,4.00
2022-08-08T11:27:10.587Z,3.27
2022-08-08T11:30:27.316Z,2.87
2022-08-08T11:33:50.959Z,3.00
2022-08-08T11:36:58.599Z,2.20
2022-08-08T11:40:04.020Z,4.13
2022-08-08T11:43:08.611Z,2.77
2022-08-08T11:46:18.069Z,3.17
2022-08-08T11:49:21.001Z,4.37
2022-08-08T11:52:27.374Z,2.87
2022-08-08T11:55:37.465Z,4.30
2022-08-08T11:58:42.487Z,2.30
2022-08-08T12:01:45.429Z,2.47
2022-08-08T12:04:49.061Z,3.50
2022-08-08T12:07:56.022Z,2.87
2022-08-08T12:11:02.253Z,4.73
2022-08-08T12:14:07.861Z,6.17
2022-08-08T12:17:13.835Z,2.60
2022-08-08T12:20:16.552Z,2.90
2022-08-08T12:23:40.800Z,2.63
2022-08-08T12:26:51.775Z,3.03
2022-08-08T12:30:02.108Z,3.57
2022-08-08T12:33:37.577Z,3.33
2022-08-08T12:36:49.377Z,3.47
2022-08-08T12:39:59.778Z,3.10
2022-08-08T12:43:05.042Z,2.00
2022-08-08T12:46:24.926Z,3.30
2022-08-08T12:49:44.941Z,3.80
2022-08-08T12:52:54.648Z,4.27
2022-08-08T12:56:19.891Z,2.70
2022-08-08T12:59:44.777Z,2.43
2022-08-08T13:03:00.873Z,3.27
2022-08-08T13:06:14.584Z,2.50
2022-08-08T13:09:17.777Z,3.50
2022-08-08T13:12:37.168Z,3.47
2022-08-08T13:15:43.254Z,3.57
2022-08-08T13:19:09.302Z,2.97
2022-08-08T13:22:16.831Z,3.23
2022-08-08T13:25:22.487Z,3.63
2022-08-08T13:28:32.756Z,2.30
2022-08-08T13:31:35.102Z,4.13
2022-08-08T13:34:39.899Z,4.17
2022-08-08T13:38:04.837Z,4.50
2022-08-08T13:41:06.323Z,5.00
2022-08-08T13:44:11.036Z,3.30
2022-08-08T13:47:18.087Z,3.37
2022-08-08T13:50:43.074Z,2.27
2022-08-08T13:54:00.093Z,1.90
2022-08-08T13:57:08.538Z,2.97
2022-08-08T14:00:11.495Z,2.43
2022-08-08T14:03:53.690Z,2.97
2022-08-08T14:06:59.259Z,2.67
2022-08-08T14:10:16.938Z,3.93
2022-08-08T14:13:30.389Z,5.27
2022-08-08T14:16:35.339Z,3.00
2022-08-08T14:19:58.203Z,3.27
2022-08-08T14:23:20.824Z,2.23
2022-08-08T14:26:46.130Z,6.33
2022-08-08T14:30:00.209Z,2.37
2022-08-08T14:33:12.611Z,2.57
2022-08-08T14:36:17.209Z,2.17
2022-08-08T14:39:21.078Z,2.80
2022-08-08T14:42:54.650Z,1.80
2022-08-08T14:46:06.847Z,2.07
2022-08-08T14:49:20.613Z,6.57
2022-08-08T14:52:44.311Z,2.77
2022-08-08T14:55:48.499Z,3.97
2022-08-08T14:59:04.207Z,3.80
2022-08-08T15:02:30.973Z,2.73
2022-08-08T15:05:42.689Z,2.40
2022-08-08T15:08:55.326Z,3.63
2022-08-08T15:11:57.631Z,2.00
2022-08-08T15:15:00.969Z,2.23
2022-08-08T15:18:11.395Z,3.33
2022-08-08T15:21:13.655Z,1.67
2022-08-08T15:24:16.087Z,2.10
2022-08-08T15:27:58.380Z,2.77
2022-08-08T15:30:41.136Z,2.57
2022-08-08T15:33:59.018Z,2.20
2022-08-08T15:37:05.150Z,2.17
2022-08-08T15:40:11.169Z,2.20
2022-08-08T15:43:18.785Z,2.20
2022-08-08T15:46:37.980Z,6.00
2022-08-08T15:49:44.096Z,3.23
2022-08-08T15:52:46.168Z,2.40
2022-08-08T15:55:48.170Z,1.77
2022-08-08T15:58:52.265Z,2.63
2022-08-08T16:01:59.766Z,3.57
2022-08-08T16:05:53.185Z,1.73
2022-08-08T16:13:00.223Z,2.00
2022-08-08T16:13:10.728Z,1.63
2022-08-08T16:15:58.617Z,2.17
2022-08-08T16:19:08.546Z,1.90
2022-08-08T16:22:10.697Z,2.30
2022-08-08T16:25:46.421Z,3.83
2022-08-08T16:28:55.131Z,1.77
2022-08-08T16:31:57.368Z,1.90
2022-08-08T16:35:04.739Z,3.33
2022-08-08T16:38:16.309Z,1.70
2022-08-08T16:41:28.268Z,2.67
2022-08-08T16:44:34.023Z,1.97
2022-08-08T16:47:42.493Z,1.90
2022-08-08T16:50:44.831Z,2.50
2022-08-08T16:55:03.608Z,1.70
2022-08-08T16:57:43.465Z,2.00
2022-08-08T17:00:31.000Z,1.73
2022-08-08T17:04:00.385Z,3.57
2022-08-08T17:06:55.318Z,4.20
2022-08-08T17:09:57.414Z,4.07
2022-08-08T17:13:00.838Z,2.20
2022-08-08T17:16:15.357Z,1.90
2022-08-08T17:19:18.534Z,2.37
2022-08-08T17:22:21.315Z,2.17
2022-08-08T17:25:52.322Z,2.13
2022-08-08T17:28:55.066Z,1.77
2022-08-08T17:31:57.456Z,2.13
2022-08-08T17:35:53.508Z,2.83
2022-08-08T17:38:21.947Z,2.50
2022-08-08T17:41:30.745Z,3.27
2022-08-08T17:44:44.502Z,2.23
2022-08-08T17:47:47.102Z,2.03
2022-08-08T17:50:54.248Z,3.23
2022-08-08T17:53:57.959Z,2.73
2022-08-08T17:57:03.341Z,1.70
2022-08-08T18:00:13.421Z,2.37
2022-08-08T18:03:22.944Z,1.80
2022-08-08T18:06:30.583Z,2.03
2022-08-08T18:09:38.693Z,2.27
2022-08-08T18:12:42.764Z,2.07
2022-08-08T18:15:46.694Z,1.73
2022-08-08T18:19:02.626Z,3.70
2022-08-08T18:22:06.092Z,2.20
2022-08-08T18:25:36.993Z,2.07
2022-08-08T18:28:54.753Z,2.50
2022-08-08T18:31:59.203Z,2.07
2022-08-08T18:35:01.213Z,2.37
2022-08-08T18:38:03.853Z,3.20
2022-08-08T18:41:19.328Z,5.50
2022-08-08T18:44:42.293Z,2.07
2022-08-08T18:47:57.384Z,2.00
2022-08-08T18:50:59.919Z,2.00
2022-08-08T18:54:13.804Z,1.90
2022-08-08T18:57:24.065Z,2.13
2022-08-08T19:00:26.091Z,1.87
2022-08-08T19:03:28.122Z,3.17
2022-08-08T19:06:50.144Z,3.27
2022-08-08T19:10:15.528Z,1.83
2022-08-08T19:13:21.753Z,2.90
2022-08-08T19:16:32.006Z,2.10
2022-08-08T19:19:34.483Z,2.17
2022-08-08T19:22:37.761Z,2.27
2022-08-08T19:26:01.106Z,2.17
2022-08-08T19:29:04.264Z,1.80
2022-08-08T19:32:12.645Z,1.77
2022-08-08T19:35:15.842Z,2.40
2022-08-08T19:38:22.550Z,2.50
2022-08-08T19:41:34.159Z,2.43
2022-08-08T19:44:45.673Z,2.90
2022-08-08T19:47:49.911Z,1.70
2022-08-08T19:50:52.713Z,2.20
2022-08-08T19:53:55.714Z,1.77
2022-08-08T19:56:57.780Z,3.07
2022-08-08T20:00:00.880Z,2.00
2022-08-08T20:03:14.851Z,2.10
2022-08-08T20:06:27.283Z,2.40
2022-08-08T20:09:32.549Z,1.97
2022-08-08T20:12:40.290Z,2.00
2022-08-08T20:16:01.450Z,2.87
2022-08-08T20:19:03.550Z,1.47
2022-08-08T20:22:21.037Z,1.67
2022-08-08T20:25:31.523Z,2.67
2022-08-08T20:28:34.217Z,3.17
2022-08-08T20:31:47.157Z,2.27
2022-08-08T20:35:01.129Z,3.50
2022-08-08T20:38:04.036Z,3.13
2022-08-08T20:41:17.454Z,2.00
2022-08-08T20:44:21.760Z,2.53
2022-08-08T20:47:36.131Z,1.93
2022-08-08T20:50:40.285Z,2.60
2022-08-08T20:53:58.853Z,2.10
2022-08-08T20:57:18.752Z,2.30
2022-08-08T21:00:26.849Z,2.10
2022-08-08T21:03:29.944Z,2.33
2022-08-08T21:06:52.082Z,2.97
2022-08-08T21:10:02.217Z,2.60
2022-08-08T21:13:10.378Z,2.57
2022-08-08T21:16:20.784Z,2.33
2022-08-08T21:19:34.094Z,2.07
2022-08-08T21:22:48.671Z,2.77
2022-08-08T21:25:54.818Z,2.30
2022-08-08T21:29:02.231Z,2.60
2022-08-08T21:32:14.313Z,5.23
2022-08-08T21:36:13.745Z,2.50
2022-08-08T21:38:50.833Z,4.07
2022-08-08T21:41:59.123Z,2.43
2022-08-08T21:45:44.545Z,2.30
2022-08-08T21:48:29.053Z,2.73
2022-08-08T21:54:18.567Z,2.40
2022-08-08T21:56:18.916Z,3.20
2022-08-08T21:58:32.141Z,3.37
2022-08-08T22:01:40.876Z,3.00
2022-08-08T22:04:43.972Z,3.00
2022-08-08T22:07:49.007Z,3.53
2022-08-08T22:10:54.037Z,2.87
2022-08-08T22:13:57.367Z,2.73
2022-08-08T22:17:01.146Z,3.10
2022-08-08T22:20:11.962Z,2.70
2022-08-08T22:23:17.685Z,2.53
2022-08-08T22:26:28.845Z,3.60
2022-08-08T22:29:59.169Z,3.07
2022-08-08T22:32:54.966Z,2.40
2022-08-08T22:36:05.452Z,2.97
2022-08-08T22:39:19.750Z,4.23
2022-08-08T22:42:27.134Z,2.90
2022-08-08T22:45:34.755Z,4.20
2022-08-08T22:48:38.083Z,3.03
2022-08-08T22:51:42.829Z,3.13
2022-08-08T22:54:55.829Z,3.30
2022-08-08T22:58:00.778Z,3.40
2022-08-08T23:01:26.585Z,3.30
2022-08-08T23:04:33.672Z,4.10
2022-08-08T23:07:51.643Z,3.20
2022-08-08T23:11:06.145Z,2.80
2022-08-08T23:14:16.207Z,3.10
2022-08-08T23:17:18.297Z,3.97
2022-08-08T23:20:21.609Z,3.00
2022-08-08T23:23:29.496Z,2.80
2022-08-08T23:26:33.873Z,2.90
2022-08-08T23:29:36.868Z,2.80
2022-08-08T23:32:41.675Z,3.47
2022-08-08T23:36:06.852Z,2.93
2022-08-08T23:39:08.629Z,3.60
2022-08-08T23:42:10.865Z,2.93
2022-08-08T23:45:13.555Z,3.47
2022-08-08T23:49:03.598Z,2.60
2022-08-08T23:51:41.894Z,2.53
2022-08-08T23:55:07.738Z,2.80
2022-08-08T23:58:31.988Z,4.13
